sensor_id;sensor_type;location;lat;lon;timestamp;pressure;altitude;pressure_sealevel;temperature;humidity
2549;BME280;1284;53.520;10.248;2022-11-11T00:01:55;101849.19;;;15.01;79.85
2549;BME280;1284;53.520;10.248;2022-11-11T00:04:38;101844.06;;;14.96;80.23
2549;BME280;1284;53.520;10.248;2022-11-11T00:07:22;101865.81;;;14.80;80.58
2549;BME280;1284;53.520;10.248;2022-11-11T00:10:07;101866.81;;;14.91;80.82
2549;BME280;1284;53.520;10.248;2022-11-11T00:12:51;101874.91;;;15.07;80.15
2549;BME280;1284;53.520;10.248;2022-11-11T00:15:37;101871.63;;;14.98;80.45
2549;BME280;1284;53.520;10.248;2022-11-11T00:18:21;101887.94;;;15.17;79.50
2549;BME280;1284;53.520;10.248;2022-11-11T00:21:25;101880.34;;;15.07;79.58
2549;BME280;1284;53.520;10.248;2022-11-11T00:24:24;101864.63;;;14.97;80.42
2549;BME280;1284;53.520;10.248;2022-11-11T00:27:27;101863.69;;;14.89;80.96
2549;BME280;1284;53.520;10.248;2022-11-11T00:30:11;101872.25;;;14.91;81.00
2549;BME280;1284;53.520;10.248;2022-11-11T00:32:55;101867.22;;;15.09;80.70
2549;BME280;1284;53.520;10.248;2022-11-11T00:35:40;101867.94;;;15.06;80.41
2549;BME280;1284;53.520;10.248;2022-11-11T00:38:36;101867.84;;;15.02;80.43
2549;BME280;1284;53.520;10.248;2022-11-11T00:41:29;101870.47;;;14.99;80.25
2549;BME280;1284;53.520;10.248;2022-11-11T00:44:13;101863.81;;;14.96;80.93
2549;BME280;1284;53.520;10.248;2022-11-11T00:46:57;101861.47;;;14.95;81.30
2549;BME280;1284;53.520;10.248;2022-11-11T00:50:00;101857.84;;;15.06;80.60
2549;BME280;1284;53.520;10.248;2022-11-11T00:53:04;101866.56;;;14.81;81.58
2549;BME280;1284;53.520;10.248;2022-11-11T00:55:51;101858.69;;;14.91;81.19
2549;BME280;1284;53.520;10.248;2022-11-11T00:58:35;101864.84;;;15.07;80.70
2549;BME280;1284;53.520;10.248;2022-11-11T01:01:19;101859.72;;;14.87;81.26
2549;BME280;1284;53.520;10.248;2022-11-11T01:04:04;101866.63;;;15.00;80.92
2549;BME280;1284;53.520;10.248;2022-11-11T01:06:48;101866.81;;;14.91;81.10
2549;BME280;1284;53.520;10.248;2022-11-11T01:09:35;101863.81;;;14.96;81.62
2549;BME280;1284;53.520;10.248;2022-11-11T01:12:19;101887.47;;;14.96;81.34
2549;BME280;1284;53.520;10.248;2022-11-11T01:15:03;101889.03;;;14.97;81.33
2549;BME280;1284;53.520;10.248;2022-11-11T01:17:47;101875.53;;;15.00;81.35
2549;BME280;1284;53.520;10.248;2022-11-11T01:20:31;101882.34;;;15.10;80.88
2549;BME280;1284;53.520;10.248;2022-11-11T01:23:15;101888.63;;;15.14;80.89
2549;BME280;1284;53.520;10.248;2022-11-11T01:26:21;101892.00;;;15.07;81.17
2549;BME280;1284;53.520;10.248;2022-11-11T01:29:05;101895.91;;;15.10;80.83
2549;BME280;1284;53.520;10.248;2022-11-11T01:31:49;101896.44;;;15.15;80.76
2549;BME280;1284;53.520;10.248;2022-11-11T01:34:33;101903.34;;;15.13;80.47
2549;BME280;1284;53.520;10.248;2022-11-11T01:37:17;101888.88;;;15.24;80.73
2549;BME280;1284;53.520;10.248;2022-11-11T01:40:01;101888.31;;;15.15;80.36
2549;BME280;1284;53.520;10.248;2022-11-11T01:45:50;101879.63;;;15.10;81.24
2549;BME280;1284;53.520;10.248;2022-11-11T01:48:39;101879.72;;;14.79;82.25
2549;BME280;1284;53.520;10.248;2022-11-11T01:55:00;101866.25;;;14.82;82.65
2549;BME280;1284;53.520;10.248;2022-11-11T01:57:53;101860.44;;;14.84;82.93
2549;BME280;1284;53.520;10.248;2022-11-11T02:00:41;101853.19;;;14.88;82.28
2549;BME280;1284;53.520;10.248;2022-11-11T02:03:26;101858.97;;;14.86;82.21
2549;BME280;1284;53.520;10.248;2022-11-11T02:06:13;101859.47;;;14.92;81.92
2549;BME280;1284;53.520;10.248;2022-11-11T02:08:57;101865.38;;;15.13;81.60
2549;BME280;1284;53.520;10.248;2022-11-11T02:11:41;101865.53;;;14.85;82.24
2549;BME280;1284;53.520;10.248;2022-11-11T02:14:47;101856.34;;;14.90;82.88
2549;BME280;1284;53.520;10.248;2022-11-11T02:17:32;101850.03;;;14.86;82.78
2549;BME280;1284;53.520;10.248;2022-11-11T02:20:23;101852.03;;;14.89;82.57
2549;BME280;1284;53.520;10.248;2022-11-11T02:29:00;101846.22;;;14.56;83.21
2549;BME280;1284;53.520;10.248;2022-11-11T02:31:46;101836.81;;;14.50;83.87
2549;BME280;1284;53.520;10.248;2022-11-11T02:34:31;101839.22;;;14.70;82.92
2549;BME280;1284;53.520;10.248;2022-11-11T02:37:19;101836.34;;;14.79;82.78
2549;BME280;1284;53.520;10.248;2022-11-11T02:40:04;101834.84;;;14.66;82.95
2549;BME280;1284;53.520;10.248;2022-11-11T02:42:51;101826.03;;;14.69;82.89
2549;BME280;1284;53.520;10.248;2022-11-11T02:45:35;101828.13;;;14.60;83.06
2549;BME280;1284;53.520;10.248;2022-11-11T02:48:20;101827.47;;;14.47;83.61
2549;BME280;1284;53.520;10.248;2022-11-11T02:51:04;101813.28;;;14.54;83.42
2549;BME280;1284;53.520;10.248;2022-11-11T02:53:49;101815.38;;;14.44;83.32
2549;BME280;1284;53.520;10.248;2022-11-11T02:56:33;101821.53;;;14.41;83.76
2549;BME280;1284;53.520;10.248;2022-11-11T02:59:38;101844.22;;;14.53;82.96
2549;BME280;1284;53.520;10.248;2022-11-11T03:02:22;101839.94;;;14.67;83.04
2549;BME280;1284;53.520;10.248;2022-11-11T03:05:10;101839.25;;;14.55;83.23
2549;BME280;1284;53.520;10.248;2022-11-11T03:07:54;101839.16;;;14.67;83.14
2549;BME280;1284;53.520;10.248;2022-11-11T03:10:38;101850.50;;;14.72;82.38
2549;BME280;1284;53.520;10.248;2022-11-11T03:13:22;101865.81;;;14.80;82.45
2549;BME280;1284;53.520;10.248;2022-11-11T03:16:06;101870.16;;;14.85;82.02
2549;BME280;1284;53.520;10.248;2022-11-11T03:19:10;101867.22;;;14.74;82.10
2549;BME280;1284;53.520;10.248;2022-11-11T03:21:54;101865.72;;;14.77;82.49
2549;BME280;1284;53.520;10.248;2022-11-11T03:24:38;101876.75;;;14.68;82.43
2549;BME280;1284;53.520;10.248;2022-11-11T03:27:41;101878.84;;;14.75;82.60
2549;BME280;1284;53.520;10.248;2022-11-11T03:30:25;101876.41;;;14.70;82.83
2549;BME280;1284;53.520;10.248;2022-11-11T03:33:09;101884.19;;;14.56;83.09
2549;BME280;1284;53.520;10.248;2022-11-11T03:35:53;101883.16;;;14.44;83.42
2549;BME280;1284;53.520;10.248;2022-11-11T03:38:37;101880.78;;;14.43;83.27
2549;BME280;1284;53.520;10.248;2022-11-11T03:41:21;101887.00;;;14.43;83.54
2549;BME280;1284;53.520;10.248;2022-11-11T03:44:05;101879.03;;;14.51;83.18
2549;BME280;1284;53.520;10.248;2022-11-11T03:46:49;101883.16;;;14.44;83.21
2549;BME280;1284;53.520;10.248;2022-11-11T03:49:33;101888.47;;;14.57;82.44
2549;BME280;1284;53.520;10.248;2022-11-11T03:52:17;101887.31;;;14.26;83.72
2549;BME280;1284;53.520;10.248;2022-11-11T03:55:01;101886.06;;;14.36;83.77
2549;BME280;1284;53.520;10.248;2022-11-11T03:57:45;101884.19;;;14.56;83.06
2549;BME280;1284;53.520;10.248;2022-11-11T04:00:29;101880.31;;;14.25;83.52
2549;BME280;1284;53.520;10.248;2022-11-11T04:03:15;101895.91;;;14.44;83.27
2549;BME280;1284;53.520;10.248;2022-11-11T04:06:18;101884.91;;;14.37;83.59
2549;BME280;1284;53.520;10.248;2022-11-11T04:09:21;101882.97;;;14.53;83.04
2549;BME280;1284;53.520;10.248;2022-11-11T04:12:24;101904.59;;;14.50;82.81
2549;BME280;1284;53.520;10.248;2022-11-11T04:15:09;101900.13;;;14.41;83.44
2549;BME280;1284;53.520;10.248;2022-11-11T04:18:12;101907.19;;;14.30;83.73
2549;BME280;1284;53.520;10.248;2022-11-11T04:20:56;101903.50;;;14.38;83.95
2549;BME280;1284;53.520;10.248;2022-11-11T04:23:59;101911.06;;;14.45;83.03
2549;BME280;1284;53.520;10.248;2022-11-11T04:26:43;101906.94;;;14.35;83.30
2549;BME280;1284;53.520;10.248;2022-11-11T04:29:28;101905.34;;;14.50;83.04
2549;BME280;1284;53.520;10.248;2022-11-11T04:32:14;101905.34;;;14.50;83.13
2549;BME280;1284;53.520;10.248;2022-11-11T04:35:18;101912.72;;;14.34;83.40
2549;BME280;1284;53.520;10.248;2022-11-11T04:38:01;101923.00;;;14.44;83.14
2549;BME280;1284;53.520;10.248;2022-11-11T04:41:05;101919.84;;;14.26;83.88
2549;BME280;1284;53.520;10.248;2022-11-11T04:43:54;101924.44;;;14.38;83.70
2549;BME280;1284;53.520;10.248;2022-11-11T04:46:57;101918.81;;;14.31;83.67
2549;BME280;1284;53.520;10.248;2022-11-11T04:49:41;101920.44;;;14.20;84.02
2549;BME280;1284;53.520;10.248;2022-11-11T04:52:25;101923.25;;;14.23;84.30
2549;BME280;1284;53.520;10.248;2022-11-11T04:55:08;101925.03;;;14.31;82.94
2549;BME280;1284;53.520;10.248;2022-11-11T04:58:12;101914.75;;;14.25;84.09
2549;BME280;1284;53.520;10.248;2022-11-11T05:00:57;101922.22;;;14.28;83.40
2549;BME280;1284;53.520;10.248;2022-11-11T05:03:41;101916.94;;;14.19;83.94
2549;BME280;1284;53.520;10.248;2022-11-11T05:06:25;101920.75;;;14.03;84.83
2549;BME280;1284;53.520;10.248;2022-11-11T05:09:27;101919.47;;;14.12;84.49
2549;BME280;1284;53.520;10.248;2022-11-11T05:12:11;101927.69;;;14.16;84.64
2549;BME280;1284;53.520;10.248;2022-11-11T05:14:55;101916.03;;;14.27;83.90
2549;BME280;1284;53.520;10.248;2022-11-11T05:17:58;101918.25;;;14.25;83.63
2549;BME280;1284;53.520;10.248;2022-11-11T05:21:01;101912.59;;;13.87;85.33
2549;BME280;1284;53.520;10.248;2022-11-11T05:24:04;101906.16;;;14.07;84.44
2549;BME280;1284;53.520;10.248;2022-11-11T05:27:07;101905.84;;;14.09;84.15
2549;BME280;1284;53.520;10.248;2022-11-11T05:29:52;101903.63;;;13.99;84.25
2549;BME280;1284;53.520;10.248;2022-11-11T05:32:36;101896.25;;;13.84;84.94
2549;BME280;1284;53.520;10.248;2022-11-11T05:35:21;101896.78;;;13.89;85.01
2549;BME280;1284;53.520;10.248;2022-11-11T05:38:05;101908.59;;;13.97;84.31
2549;BME280;1284;53.520;10.248;2022-11-11T05:41:05;101909.00;;;13.83;84.67
2549;BME280;1284;53.520;10.248;2022-11-11T05:43:49;101910.81;;;13.79;84.67
2549;BME280;1284;53.520;10.248;2022-11-11T05:46:33;101911.13;;;14.05;83.98
2549;BME280;1284;53.520;10.248;2022-11-11T05:49:17;101926.88;;;14.15;83.84
2549;BME280;1284;53.520;10.248;2022-11-11T05:52:03;101905.03;;;14.08;83.41
2549;BME280;1284;53.520;10.248;2022-11-11T05:54:47;101916.38;;;13.98;83.42
2549;BME280;1284;53.520;10.248;2022-11-11T05:57:31;101918.81;;;14.03;83.82
2549;BME280;1284;53.520;10.248;2022-11-11T06:00:16;101932.22;;;14.12;83.82
2549;BME280;1284;53.520;10.248;2022-11-11T06:03:04;101920.22;;;13.97;84.01
2549;BME280;1284;53.520;10.248;2022-11-11T06:05:48;101918.63;;;13.96;84.28
2549;BME280;1284;53.520;10.248;2022-11-11T06:08:32;101917.53;;;13.97;84.24
2549;BME280;1284;53.520;10.248;2022-11-11T06:11:17;101927.91;;;13.95;84.08
2549;BME280;1284;53.520;10.248;2022-11-11T06:14:01;101927.13;;;13.95;84.81
2549;BME280;1284;53.520;10.248;2022-11-11T06:16:46;101924.00;;;14.08;84.01
2549;BME280;1284;53.520;10.248;2022-11-11T06:22:14;101944.28;;;14.14;84.12
2549;BME280;1284;53.520;10.248;2022-11-11T06:25:18;101938.03;;;13.98;84.46
2549;BME280;1284;53.520;10.248;2022-11-11T06:28:21;101936.41;;;14.09;84.38
2549;BME280;1284;53.520;10.248;2022-11-11T06:31:05;101935.25;;;13.95;84.98
2549;BME280;1284;53.520;10.248;2022-11-11T06:33:50;101933.81;;;13.85;85.73
2549;BME280;1284;53.520;10.248;2022-11-11T06:36:34;101937.91;;;13.79;85.89
2549;BME280;1284;53.520;10.248;2022-11-11T06:39:18;101947.38;;;13.85;86.07
2549;BME280;1284;53.520;10.248;2022-11-11T06:42:02;101946.44;;;13.93;85.73
2549;BME280;1284;53.520;10.248;2022-11-11T06:44:46;101946.22;;;13.86;85.99
2549;BME280;1284;53.520;10.248;2022-11-11T06:47:30;101951.31;;;13.88;86.37
2549;BME280;1284;53.520;10.248;2022-11-11T06:50:15;101963.22;;;13.99;86.12
2549;BME280;1284;53.520;10.248;2022-11-11T06:53:09;101973.28;;;13.86;86.16
2549;BME280;1284;53.520;10.248;2022-11-11T06:55:54;101959.44;;;13.88;86.18
2549;BME280;1284;53.520;10.248;2022-11-11T06:58:38;101974.78;;;13.84;86.73
2549;BME280;1284;53.520;10.248;2022-11-11T07:01:22;101970.66;;;13.74;86.94
2549;BME280;1284;53.520;10.248;2022-11-11T07:04:06;101988.81;;;13.74;87.34
2549;BME280;1284;53.520;10.248;2022-11-11T07:06:50;101987.16;;;13.97;86.38
2549;BME280;1284;53.520;10.248;2022-11-11T07:12:41;102004.69;;;13.87;87.07
2549;BME280;1284;53.520;10.248;2022-11-11T07:15:25;101997.63;;;13.98;86.38
2549;BME280;1284;53.520;10.248;2022-11-11T07:18:10;101995.25;;;13.69;87.88
2549;BME280;1284;53.520;10.248;2022-11-11T07:20:54;101995.50;;;13.40;89.11
2549;BME280;1284;53.520;10.248;2022-11-11T07:23:41;102003.59;;;13.64;89.42
2549;BME280;1284;53.520;10.248;2022-11-11T07:26:24;102000.56;;;13.53;88.86
2549;BME280;1284;53.520;10.248;2022-11-11T07:29:08;101998.84;;;13.61;88.88
2549;BME280;1284;53.520;10.248;2022-11-11T07:31:53;102007.91;;;13.53;89.34
2549;BME280;1284;53.520;10.248;2022-11-11T07:34:37;102010.81;;;13.72;88.43
2549;BME280;1284;53.520;10.248;2022-11-11T07:37:21;102014.16;;;13.81;88.42
2549;BME280;1284;53.520;10.248;2022-11-11T07:40:06;102010.66;;;13.81;87.65
2549;BME280;1284;53.520;10.248;2022-11-11T07:42:50;102011.19;;;13.98;87.16
2549;BME280;1284;53.520;10.248;2022-11-11T07:45:34;102014.53;;;13.68;89.06
2549;BME280;1284;53.520;10.248;2022-11-11T07:48:18;102014.53;;;13.80;88.99
2549;BME280;1284;53.520;10.248;2022-11-11T07:51:02;102020.50;;;13.73;89.34
2549;BME280;1284;53.520;10.248;2022-11-11T07:53:46;102020.41;;;13.70;90.03
2549;BME280;1284;53.520;10.248;2022-11-11T07:56:30;102022.53;;;13.76;89.52
2549;BME280;1284;53.520;10.248;2022-11-11T07:59:14;102021.41;;;13.77;89.72
2549;BME280;1284;53.520;10.248;2022-11-11T08:01:58;102027.41;;;13.58;90.89
2549;BME280;1284;53.520;10.248;2022-11-11T08:04:43;102039.34;;;13.82;90.08
2549;BME280;1284;53.520;10.248;2022-11-11T08:07:27;102038.09;;;13.79;90.00
2549;BME280;1284;53.520;10.248;2022-11-11T08:10:11;102038.41;;;13.90;89.93
2549;BME280;1284;53.520;10.248;2022-11-11T08:12:55;102037.63;;;13.89;90.03
2549;BME280;1284;53.520;10.248;2022-11-11T08:15:58;102043.50;;;13.79;90.85
2549;BME280;1284;53.520;10.248;2022-11-11T08:18:45;102049.38;;;13.81;90.92
2549;BME280;1284;53.520;10.248;2022-11-11T08:21:29;102038.34;;;13.62;91.33
2549;BME280;1284;53.520;10.248;2022-11-11T08:24:13;102048.22;;;13.82;91.28
2549;BME280;1284;53.520;10.248;2022-11-11T08:26:57;102046.41;;;13.86;90.83
2549;BME280;1284;53.520;10.248;2022-11-11T08:29:41;102043.94;;;13.93;90.64
2549;BME280;1284;53.520;10.248;2022-11-11T08:32:25;102065.16;;;13.91;90.48
2549;BME280;1284;53.520;10.248;2022-11-11T08:35:09;102060.19;;;13.93;90.58
2549;BME280;1284;53.520;10.248;2022-11-11T08:37:53;102065.38;;;13.86;90.63
2549;BME280;1284;53.520;10.248;2022-11-11T08:40:38;102072.03;;;13.77;91.34
2549;BME280;1284;53.520;10.248;2022-11-11T08:43:22;102075.66;;;13.81;91.55
2549;BME280;1284;53.520;10.248;2022-11-11T08:46:06;102070.69;;;13.83;91.10
2549;BME280;1284;53.520;10.248;2022-11-11T08:48:49;102086.59;;;13.84;91.20
2549;BME280;1284;53.520;10.248;2022-11-11T08:51:33;102087.94;;;13.90;90.59
2549;BME280;1284;53.520;10.248;2022-11-11T08:54:17;102086.91;;;14.07;89.69
2549;BME280;1284;53.520;10.248;2022-11-11T08:57:02;102078.09;;;13.98;89.48
2549;BME280;1284;53.520;10.248;2022-11-11T08:59:46;102079.22;;;14.09;89.52
2549;BME280;1284;53.520;10.248;2022-11-11T09:02:30;102089.31;;;14.24;89.38
2549;BME280;1284;53.520;10.248;2022-11-11T09:05:14;102086.03;;;14.30;88.61
2549;BME280;1284;53.520;10.248;2022-11-11T09:08:05;102088.28;;;14.40;88.16
2549;BME280;1284;53.520;10.248;2022-11-11T09:10:50;102091.25;;;14.23;88.38
2549;BME280;1284;53.520;10.248;2022-11-11T09:13:34;102091.69;;;14.25;88.47
2549;BME280;1284;53.520;10.248;2022-11-11T09:16:18;102099.59;;;14.30;88.42
2549;BME280;1284;53.520;10.248;2022-11-11T09:19:02;102094.88;;;14.15;88.30
2549;BME280;1284;53.520;10.248;2022-11-11T09:21:46;102113.72;;;14.24;88.50
2549;BME280;1284;53.520;10.248;2022-11-11T09:24:30;102114.63;;;14.28;88.24
2549;BME280;1284;53.520;10.248;2022-11-11T09:27:14;102112.38;;;14.18;88.00
2549;BME280;1284;53.520;10.248;2022-11-11T09:29:58;102113.09;;;14.03;89.25
2549;BME280;1284;53.520;10.248;2022-11-11T09:32:42;102113.75;;;14.12;89.11
2549;BME280;1284;53.520;10.248;2022-11-11T09:35:26;102119.25;;;14.15;88.67
2549;BME280;1284;53.520;10.248;2022-11-11T09:38:09;102125.84;;;13.90;89.77
2549;BME280;1284;53.520;10.248;2022-11-11T09:41:20;102116.72;;;13.95;90.21
2549;BME280;1284;53.520;10.248;2022-11-11T09:44:05;102120.66;;;13.97;90.08
2549;BME280;1284;53.520;10.248;2022-11-11T09:47:08;102127.19;;;13.96;90.41
2549;BME280;1284;53.520;10.248;2022-11-11T09:50:18;102127.66;;;13.98;90.61
2549;BME280;1284;53.520;10.248;2022-11-11T09:53:20;102122.22;;;14.10;90.02
2549;BME280;1284;53.520;10.248;2022-11-11T09:56:11;102129.28;;;14.27;89.58
2549;BME280;1284;53.520;10.248;2022-11-11T09:59:05;102128.38;;;14.23;89.03
2549;BME280;1284;53.520;10.248;2022-11-11T10:01:56;102128.72;;;14.21;89.43
2549;BME280;1284;53.520;10.248;2022-11-11T10:07:43;102133.63;;;14.28;88.75
2549;BME280;1284;53.520;10.248;2022-11-11T10:10:41;102135.28;;;14.20;89.10
2549;BME280;1284;53.520;10.248;2022-11-11T10:13:35;102136.22;;;14.12;89.54
2549;BME280;1284;53.520;10.248;2022-11-11T10:16:53;102136.13;;;14.09;89.65
2549;BME280;1284;53.520;10.248;2022-11-11T10:20:10;102133.06;;;13.98;89.83
2549;BME280;1284;53.520;10.248;2022-11-11T10:23:12;102148.72;;;14.17;89.47
2549;BME280;1284;53.520;10.248;2022-11-11T10:26:02;102144.78;;;14.26;88.96
2549;BME280;1284;53.520;10.248;2022-11-11T10:28:49;102147.72;;;14.33;88.34
2549;BME280;1284;53.520;10.248;2022-11-11T10:31:35;102148.16;;;14.35;88.13
2549;BME280;1284;53.520;10.248;2022-11-11T10:34:20;102146.81;;;14.29;87.90
2549;BME280;1284;53.520;10.248;2022-11-11T10:37:16;102140.13;;;14.27;87.43
2549;BME280;1284;53.520;10.248;2022-11-11T10:40:24;102146.69;;;14.26;87.19
2549;BME280;1284;53.520;10.248;2022-11-11T10:43:23;102148.41;;;14.18;87.31
2549;BME280;1284;53.520;10.248;2022-11-11T10:46:18;102148.84;;;14.20;86.70
2549;BME280;1284;53.520;10.248;2022-11-11T10:49:14;102155.06;;;14.09;87.09
2549;BME280;1284;53.520;10.248;2022-11-11T10:52:09;102150.06;;;14.23;86.74
2549;BME280;1284;53.520;10.248;2022-11-11T10:55:04;102156.38;;;14.27;86.41
2549;BME280;1284;53.520;10.248;2022-11-11T10:58:09;102153.13;;;14.21;85.83
2549;BME280;1284;53.520;10.248;2022-11-11T11:00:56;102152.03;;;14.10;87.07
2549;BME280;1284;53.520;10.248;2022-11-11T11:03:48;102153.56;;;14.23;86.67
2549;BME280;1284;53.520;10.248;2022-11-11T11:06:35;102151.22;;;14.34;86.26
2549;BME280;1284;53.520;10.248;2022-11-11T11:15:38;102158.00;;;14.04;85.88
2549;BME280;1284;53.520;10.248;2022-11-11T11:18:24;102146.59;;;14.10;85.98
2549;BME280;1284;53.520;10.248;2022-11-11T11:21:09;102159.78;;;14.24;85.84
2549;BME280;1284;53.520;10.248;2022-11-11T11:23:54;102151.56;;;14.20;85.03
2549;BME280;1284;53.520;10.248;2022-11-11T11:26:46;102148.50;;;14.10;85.37
2549;BME280;1284;53.520;10.248;2022-11-11T11:29:31;102145.59;;;14.15;85.54
2549;BME280;1284;53.520;10.248;2022-11-11T11:32:18;102153.38;;;14.16;85.21
2549;BME280;1284;53.520;10.248;2022-11-11T11:35:04;102161.03;;;14.26;85.17
2549;BME280;1284;53.520;10.248;2022-11-11T11:37:49;102151.09;;;14.18;85.34
2549;BME280;1284;53.520;10.248;2022-11-11T11:43:34;102153.47;;;14.32;85.10
2549;BME280;1284;53.520;10.248;2022-11-11T11:46:37;102151.56;;;14.20;84.53
2549;BME280;1284;53.520;10.248;2022-11-11T12:08:39;102156.53;;;14.06;85.42
2549;BME280;1284;53.520;10.248;2022-11-11T12:14:50;102149.06;;;14.15;85.46
2549;BME280;1284;53.520;10.248;2022-11-11T12:20:38;102154.03;;;14.37;84.97
2549;BME280;1284;53.520;10.248;2022-11-11T12:35:56;102158.13;;;14.59;83.44
2549;BME280;1284;53.520;10.248;2022-11-11T13:00:20;102152.88;;;14.38;83.89
2549;BME280;1284;53.520;10.248;2022-11-11T13:03:25;102159.19;;;14.42;84.21
2549;BME280;1284;53.520;10.248;2022-11-11T13:09:14;102156.63;;;14.62;83.89
2549;BME280;1284;53.520;10.248;2022-11-11T13:12:45;102161.16;;;14.58;84.08
2549;BME280;1284;53.520;10.248;2022-11-11T13:15:32;102158.72;;;14.53;84.35
2549;BME280;1284;53.520;10.248;2022-11-11T13:18:24;102159.44;;;14.37;85.15
2549;BME280;1284;53.520;10.248;2022-11-11T13:21:13;102167.31;;;14.42;85.18
2549;BME280;1284;53.520;10.248;2022-11-11T13:23:59;102170.47;;;14.57;84.84
2549;BME280;1284;53.520;10.248;2022-11-11T13:26:51;102172.28;;;14.53;84.61
2549;BME280;1284;53.520;10.248;2022-11-11T13:32:31;102171.63;;;14.43;84.92
2549;BME280;1284;53.520;10.248;2022-11-11T13:38:31;102177.22;;;14.63;84.48
2549;BME280;1284;53.520;10.248;2022-11-11T13:41:38;102177.84;;;14.72;84.02
2549;BME280;1284;53.520;10.248;2022-11-11T13:44:30;102173.75;;;14.50;85.16
2549;BME280;1284;53.520;10.248;2022-11-11T13:47:26;102183.81;;;14.25;86.31
2549;BME280;1284;53.520;10.248;2022-11-11T13:50:27;102184.06;;;14.32;86.72
2549;BME280;1284;53.520;10.248;2022-11-11T13:53:31;102181.91;;;14.26;87.39
2549;BME280;1284;53.520;10.248;2022-11-11T13:56:27;102189.03;;;14.30;87.56
2549;BME280;1284;53.520;10.248;2022-11-11T13:59:30;102188.53;;;14.53;86.76
2549;BME280;1284;53.520;10.248;2022-11-11T14:07:51;102185.56;;;14.58;86.76
2549;BME280;1284;53.520;10.248;2022-11-11T14:16:08;102193.25;;;14.56;87.34
2549;BME280;1284;53.520;10.248;2022-11-11T14:18:53;102190.78;;;14.63;86.54
2549;BME280;1284;53.520;10.248;2022-11-11T14:21:45;102191.06;;;14.73;86.47
2549;BME280;1284;53.520;10.248;2022-11-11T14:24:41;102200.03;;;14.62;86.55
2549;BME280;1284;53.520;10.248;2022-11-11T14:27:29;102203.50;;;14.74;86.59
2549;BME280;1284;53.520;10.248;2022-11-11T14:30:38;102198.44;;;14.73;86.50
2549;BME280;1284;53.520;10.248;2022-11-11T14:42:46;102209.88;;;14.94;85.42
2549;BME280;1284;53.520;10.248;2022-11-11T14:48:53;102205.81;;;14.88;85.49
2549;BME280;1284;53.520;10.248;2022-11-11T14:51:49;102213.25;;;14.91;85.37
2549;BME280;1284;53.520;10.248;2022-11-11T14:54:42;102202.41;;;14.91;85.46
2549;BME280;1284;53.520;10.248;2022-11-11T15:00:48;102218.00;;;14.94;85.54
2549;BME280;1284;53.520;10.248;2022-11-11T15:06:25;102211.97;;;15.00;85.38
2549;BME280;1284;53.520;10.248;2022-11-11T15:15:29;102212.94;;;14.92;85.56
2549;BME280;1284;53.520;10.248;2022-11-11T15:18:25;102214.06;;;14.91;85.91
2549;BME280;1284;53.520;10.248;2022-11-11T15:21:31;102211.78;;;14.93;85.64
2549;BME280;1284;53.520;10.248;2022-11-11T15:24:45;102217.31;;;14.97;85.15
2549;BME280;1284;53.520;10.248;2022-11-11T15:37:13;102215.59;;;14.77;86.42
2549;BME280;1284;53.520;10.248;2022-11-11T15:39:58;102217.25;;;14.81;86.27
2549;BME280;1284;53.520;10.248;2022-11-11T15:42:43;102214.34;;;14.74;86.59
2549;BME280;1284;53.520;10.248;2022-11-11T15:45:34;102217.19;;;14.66;86.94
2549;BME280;1284;53.520;10.248;2022-11-11T15:48:28;102221.34;;;14.75;86.68
2549;BME280;1284;53.520;10.248;2022-11-11T15:51:30;102218.19;;;14.73;86.56
2549;BME280;1284;53.520;10.248;2022-11-11T15:54:18;102232.34;;;14.67;86.90
2549;BME280;1284;53.520;10.248;2022-11-11T15:57:28;102234.25;;;14.66;86.94
2549;BME280;1284;53.520;10.248;2022-11-11T16:00:33;102231.44;;;14.75;86.65
2549;BME280;1284;53.520;10.248;2022-11-11T16:03:21;102226.00;;;14.75;86.79
2549;BME280;1284;53.520;10.248;2022-11-11T16:08:53;102234.34;;;14.70;86.50
2549;BME280;1284;53.520;10.248;2022-11-11T16:11:40;102235.50;;;14.69;86.71
2549;BME280;1284;53.520;10.248;2022-11-11T16:14:30;102244.41;;;14.69;86.87
2549;BME280;1284;53.520;10.248;2022-11-11T16:17:15;102243.41;;;14.62;87.00
2549;BME280;1284;53.520;10.248;2022-11-11T16:20:02;102243.19;;;14.67;86.49
2549;BME280;1284;53.520;10.248;2022-11-11T16:22:46;102247.47;;;14.68;87.03
2549;BME280;1284;53.520;10.248;2022-11-11T16:25:33;102244.75;;;14.68;86.76
2549;BME280;1284;53.520;10.248;2022-11-11T16:28:18;102254.25;;;14.62;87.29
2549;BME280;1284;53.520;10.248;2022-11-11T16:31:37;102253.69;;;14.68;87.46
2549;BME280;1284;53.520;10.248;2022-11-11T16:37:13;102256.75;;;14.67;87.58
2549;BME280;1284;53.520;10.248;2022-11-11T16:46:14;102258.78;;;14.58;87.90
2549;BME280;1284;53.520;10.248;2022-11-11T16:48:59;102257.66;;;14.59;87.90
2549;BME280;1284;53.520;10.248;2022-11-11T16:51:45;102262.06;;;14.63;87.67
2549;BME280;1284;53.520;10.248;2022-11-11T16:54:32;102252.25;;;14.59;88.06
2549;BME280;1284;53.520;10.248;2022-11-11T16:57:31;102251.69;;;14.53;87.95
2549;BME280;1284;53.520;10.248;2022-11-11T17:00:21;102253.50;;;14.61;88.00
2549;BME280;1284;53.520;10.248;2022-11-11T17:03:11;102252.78;;;14.64;88.28
2549;BME280;1284;53.520;10.248;2022-11-11T17:08:44;102247.91;;;14.70;87.56
2549;BME280;1284;53.520;10.248;2022-11-11T17:14:23;102257.09;;;14.65;87.83
2549;BME280;1284;53.520;10.248;2022-11-11T17:17:08;102260.94;;;14.64;87.93
2549;BME280;1284;53.520;10.248;2022-11-11T17:19:53;102258.47;;;14.59;87.77
2549;BME280;1284;53.520;10.248;2022-11-11T17:22:49;102252.00;;;14.64;88.17
2549;BME280;1284;53.520;10.248;2022-11-11T17:25:37;102256.06;;;14.58;88.15
2549;BME280;1284;53.520;10.248;2022-11-11T17:28:21;102256.06;;;14.58;88.44
2549;BME280;1284;53.520;10.248;2022-11-11T17:31:07;102259.00;;;14.65;88.34
2549;BME280;1284;53.520;10.248;2022-11-11T17:33:51;102258.34;;;14.56;88.14
2549;BME280;1284;53.520;10.248;2022-11-11T17:36:35;102260.84;;;14.48;88.44
2549;BME280;1284;53.520;10.248;2022-11-11T17:39:19;102248.44;;;14.48;88.48